Time;durP1;ratioP1;P1;durP2;ratioP2;P2;SDS_P1;SDS_P2;PMS_P1;PMS_P2;Temp;Humidity;BMP_temperature;BMP_pressure;BME280_temperature;BME280_humidity;BME280_pressure;Samples;Min_cycle;Max_cycle;Signal;HPM_P1;HPM_P2
2023/04/08 00:00:22;;;;;;;20.27;12.48;;;;;;;7.51;60.50;99709.03;5017096;28;20026;-92
2023/04/08 00:02:50;;;;;;;17.63;11.50;;;;;;;7.52;60.39;99701.81;4999690;28;20423;-93
2023/04/08 00:05:16;;;;;;;22.35;12.50;;;;;;;7.51;61.21;99711.72;5001341;28;20105;-92
2023/04/08 00:07:43;;;;;;;16.92;11.27;;;;;;;7.56;61.53;99700.28;4983969;28;20029;-92
2023/04/08 00:10:09;;;;;;;20.00;11.00;;;;;;;7.53;61.77;99714.16;5000313;28;20041;-93
2023/04/08 00:12:35;;;;;;;19.15;12.13;;;;;;;7.61;61.15;99703.06;4984437;28;20108;-90
2023/04/08 00:15:03;;;;;;;21.77;14.20;;;;;;;7.62;61.09;99715.41;5001122;28;20460;-91
2023/04/08 00:17:29;;;;;;;20.20;12.80;;;;;;;7.68;60.74;99709.91;4999473;28;20097;-91
2023/04/08 00:19:55;;;;;;;15.77;11.77;;;;;;;7.71;60.09;99694.38;4983981;28;20116;-92
2023/04/08 00:22:22;;;;;;;19.52;12.43;;;;;;;7.66;61.89;99695.91;4992122;28;20062;-92
2023/04/08 00:24:47;;;;;;;16.77;11.60;;;;;;;7.67;61.03;99692.19;5000593;28;20009;-91
2023/04/08 00:27:13;;;;;;;21.25;11.95;;;;;;;7.83;59.82;99705.84;4983810;28;20022;-92
2023/04/08 00:29:39;;;;;;;16.50;11.07;;;;;;;7.76;60.94;99689.94;5016225;28;20592;-91
2023/04/08 00:32:06;;;;;;;16.77;11.32;;;;;;;7.75;61.04;99700.88;4984323;28;20113;-92
2023/04/08 00:34:31;;;;;;;18.90;11.82;;;;;;;7.52;61.24;99677.72;5002940;28;20033;-91
2023/04/08 00:36:58;;;;;;;16.75;12.15;;;;;;;7.41;61.11;99682.88;5017269;28;20037;-92
2023/04/08 00:39:24;;;;;;;18.73;12.27;;;;;;;7.39;61.89;99676.16;5001678;28;20030;-93
2023/04/08 00:41:50;;;;;;;17.50;11.23;;;;;;;7.37;61.11;99680.94;5003425;28;20071;-91
2023/04/08 00:44:16;;;;;;;17.33;11.43;;;;;;;7.37;61.65;99673.69;5005082;28;20524;-90
2023/04/08 00:46:41;;;;;;;19.40;12.45;;;;;;;7.45;62.14;99678.66;4987530;28;20021;-93
2023/04/08 00:49:07;;;;;;;17.60;12.55;;;;;;;7.53;61.73;99676.66;4998757;28;20045;-92
2023/04/08 00:51:35;;;;;;;18.58;11.43;;;;;;;7.48;62.05;99666.66;5023399;28;20028;-92
2023/04/08 00:54:03;;;;;;;17.35;11.70;;;;;;;7.45;62.02;99683.19;5023100;28;20030;-94
2023/04/08 00:56:30;;;;;;;19.15;12.98;;;;;;;7.42;63.51;99673.78;5023650;28;20053;-91
2023/04/08 00:58:56;;;;;;;21.20;13.18;;;;;;;7.45;62.55;99673.31;5006893;28;20021;-91
2023/04/08 01:01:30;;;;;;;18.55;12.02;;;;;;;7.47;63.03;99687.28;5022200;28;20036;-91
2023/04/08 01:04:33;;;;;;;19.63;12.30;;;;;;;7.51;63.20;99682.22;5021922;28;20068;-91
2023/04/08 01:07:30;;;;;;;20.42;12.02;;;;;;;7.39;63.09;99682.31;5039813;28;20037;-92
2023/04/08 01:09:58;;;;;;;16.45;11.00;;;;;;;7.33;63.55;99677.91;5037752;28;20057;-91
2023/04/08 01:12:29;;;;;;;16.60;11.52;;;;;;;7.37;63.38;99673.69;5022802;28;20124;-91
2023/04/08 01:14:58;;;;;;;15.63;10.52;;;;;;;7.41;63.74;99679.41;4998881;28;20021;-92
2023/04/08 01:17:24;;;;;;;19.23;11.90;;;;;;;7.33;64.21;99680.59;5022824;28;20430;-91
2023/04/08 01:19:50;;;;;;;19.08;10.77;;;;;;;7.34;63.51;99676.84;5004944;28;20029;-92
2023/04/08 01:22:42;;;;;;;18.83;12.10;;;;;;;7.42;62.67;99689.03;5022527;28;20025;-91
2023/04/08 01:25:14;;;;;;;17.02;11.45;;;;;;;7.34;63.92;99670.69;5020709;28;20072;-92
2023/04/08 01:27:42;;;;;;;17.85;10.93;;;;;;;7.31;64.13;99677.34;5021477;28;20025;-92
2023/04/08 01:30:09;;;;;;;17.90;11.70;;;;;;;7.45;63.81;99688.56;5021340;28;20041;-92
2023/04/08 01:32:36;;;;;;;16.30;11.48;;;;;;;7.38;63.47;99682.53;5022116;28;20032;-92
2023/04/08 01:35:01;;;;;;;16.63;11.57;;;;;;;7.32;64.07;99678.94;5005610;28;20117;-93
2023/04/08 01:37:27;;;;;;;16.20;10.93;;;;;;;7.28;64.04;99683.16;5022332;28;20129;-91
2023/04/08 01:39:54;;;;;;;17.92;11.23;;;;;;;7.27;64.23;99673.50;5037878;28;20041;-91
2023/04/08 01:42:19;;;;;;;14.30;10.73;;;;;;;7.31;63.64;99677.34;5021683;28;20030;-91
2023/04/08 01:44:45;;;;;;;15.35;11.07;;;;;;;7.21;63.77;99664.56;5022438;28;20475;-91
2023/04/08 01:47:11;;;;;;;16.67;11.15;;;;;;;7.34;63.04;99671.47;5022570;28;20029;-91
2023/04/08 01:49:37;;;;;;;14.82;10.77;;;;;;;7.30;62.92;99664.97;5001654;28;20405;-92
2023/04/08 01:52:03;;;;;;;15.73;10.82;;;;;;;7.44;60.94;99666.31;5001911;28;20028;-92
2023/04/08 01:54:29;;;;;;;17.27;10.68;;;;;;;7.58;60.61;99687.47;5002548;28;20030;-91
2023/04/08 01:56:56;;;;;;;16.13;11.18;;;;;;;7.56;60.69;99674.31;5002582;28;20527;-92
2023/04/08 01:59:22;;;;;;;14.40;10.00;;;;;;;7.64;60.11;99675.78;5000895;28;20034;-91
2023/04/08 02:01:48;;;;;;;16.13;10.93;;;;;;;7.61;60.35;99663.66;4985014;28;20026;-92
2023/04/08 02:04:14;;;;;;;15.20;10.07;;;;;;;7.39;61.06;99665.44;5001742;28;20026;-91
2023/04/08 02:06:40;;;;;;;16.25;10.77;;;;;;;7.42;60.36;99667.63;4983752;28;20097;-93
2023/04/08 02:09:07;;;;;;;14.07;10.27;;;;;;;7.33;61.17;99669.06;5001737;28;20033;-91
2023/04/08 02:11:33;;;;;;;15.23;9.70;;;;;;;7.28;60.91;99665.25;5002730;28;20018;-92
2023/04/08 02:13:59;;;;;;;17.90;10.60;;;;;;;7.38;60.90;99653.06;4986300;28;20385;-92
2023/04/08 02:16:55;;;;;;;17.38;10.60;;;;;;;7.26;61.34;99653.94;5001688;28;20029;-92
2023/04/08 02:19:51;;;;;;;14.60;10.38;;;;;;;7.17;61.46;99650.00;4974685;28;20124;-93
2023/04/08 02:22:23;;;;;;;15.38;10.88;;;;;;;7.18;61.72;99657.00;4987183;28;20049;-92
2023/04/08 02:24:49;;;;;;;19.30;12.10;;;;;;;7.27;61.82;99660.91;5017271;28;20064;-92
2023/04/08 02:27:16;;;;;;;16.10;11.02;;;;;;;7.34;61.27;99643.88;4985261;28;20065;-91
2023/04/08 02:29:42;;;;;;;15.27;10.75;;;;;;;7.18;61.45;99648.16;5000109;28;20038;-91
2023/04/08 02:32:10;;;;;;;16.42;10.20;;;;;;;7.19;61.18;99657.81;5018755;28;20030;-93
2023/04/08 02:34:37;;;;;;;14.48;10.40;;;;;;;7.22;60.97;99654.66;4985678;28;20504;-92
2023/04/08 02:37:03;;;;;;;17.92;11.55;;;;;;;7.17;61.71;99662.59;5001584;28;20084;-92
2023/04/08 02:39:33;;;;;;;16.50;11.27;;;;;;;7.13;61.59;99658.78;4986484;28;20120;-91
2023/04/08 02:41:59;;;;;;;19.23;10.93;;;;;;;7.13;62.60;99658.78;5003873;28;20042;-92
2023/04/08 02:44:26;;;;;;;16.58;10.77;;;;;;;7.07;62.66;99658.66;5003953;28;20126;-92
2023/04/08 02:47:07;;;;;;;16.33;11.07;;;;;;;7.08;62.83;99656.81;4993495;28;20034;-92
2023/04/08 02:49:33;;;;;;;16.50;11.40;;;;;;;7.11;62.83;99655.53;5025237;28;20496;-93
2023/04/08 02:51:59;;;;;;;18.80;11.60;;;;;;;7.14;63.11;99661.22;5005007;28;20044;-91
2023/04/08 02:54:25;;;;;;;14.85;10.45;;;;;;;7.21;62.73;99666.44;5003869;28;20029;-91
2023/04/08 02:56:51;;;;;;;17.48;11.00;;;;;;;7.07;63.33;99658.66;5018990;28;20400;-92
2023/04/08 02:59:17;;;;;;;25.23;14.60;;;;;;;7.11;63.39;99666.22;5022758;28;20124;-92
2023/04/08 03:01:43;;;;;;;21.33;13.95;;;;;;;7.02;64.28;99661.25;5002124;28;20026;-92
2023/04/08 03:04:10;;;;;;;19.17;12.77;;;;;;;6.96;64.48;99670.22;5003876;28;20092;-92
2023/04/08 03:06:36;;;;;;;19.45;13.85;;;;;;;7.02;64.21;99668.47;5004083;28;20095;-92
2023/04/08 03:09:01;;;;;;;25.75;13.68;;;;;;;6.99;64.72;99664.41;5005529;28;20033;-92
2023/04/08 03:11:27;;;;;;;16.83;12.02;;;;;;;7.01;64.78;99664.97;5021356;28;20411;-92
2023/04/08 03:13:54;;;;;;;20.13;12.57;;;;;;;7.01;65.16;99670.31;5011380;28;20051;-92
2023/04/08 03:16:22;;;;;;;14.30;10.45;;;;;;;7.09;64.56;99669.94;5023918;28;20083;-91
2023/04/08 03:18:51;;;;;;;18.05;11.90;;;;;;;7.01;64.43;99659.59;5040789;28;20021;-92
2023/04/08 03:21:18;;;;;;;17.25;11.65;;;;;;;6.86;64.83;99652.09;5020889;28;20083;-92
2023/04/08 03:23:44;;;;;;;15.90;10.88;;;;;;;7.04;64.53;99666.38;5038159;28;20037;-93
2023/04/08 03:26:10;;;;;;;15.80;11.02;;;;;;;6.98;64.13;99654.75;5020529;28;20113;-92
2023/04/08 03:28:36;;;;;;;16.48;10.52;;;;;;;7.13;63.68;99677.50;5037394;28;20056;-92
2023/04/08 03:31:05;;;;;;;15.45;10.30;;;;;;;7.22;62.60;99678.75;5006421;28;20021;-93
2023/04/08 03:33:31;;;;;;;15.07;9.65;;;;;;;7.26;61.39;99674.53;5037517;28;20075;-93
2023/04/08 03:35:58;;;;;;;17.05;9.50;;;;;;;7.16;60.90;99663.63;5021028;28;20037;-92
2023/04/08 03:38:25;;;;;;;15.27;9.73;;;;;;;7.19;60.90;99679.25;5020975;28;20037;-92
2023/04/08 03:40:52;;;;;;;14.00;9.68;;;;;;;7.17;61.33;99684.03;5037790;28;20022;-91
2023/04/08 03:43:20;;;;;;;14.90;10.07;;;;;;;7.19;60.66;99681.91;5003448;28;20078;-92
2023/04/08 03:45:46;;;;;;;12.98;9.25;;;;;;;7.38;59.71;99688.69;5005232;28;20053;-93
2023/04/08 03:48:11;;;;;;;16.23;10.32;;;;;;;7.44;59.22;99692.31;5002771;28;20515;-92
2023/04/08 03:50:37;;;;;;;16.45;9.75;;;;;;;7.47;59.20;99678.41;5004507;28;20029;-92
2023/04/08 03:53:03;;;;;;;13.30;9.27;;;;;;;7.37;59.21;99689.78;5019686;28;20025;-91
2023/04/08 03:55:29;;;;;;;14.27;9.82;;;;;;;7.36;59.25;99690.81;5003176;28;20515;-92
2023/04/08 03:57:55;;;;;;;13.50;9.45;;;;;;;7.27;59.26;99682.34;5019311;28;20029;-92
2023/04/08 04:00:21;;;;;;;14.88;10.32;;;;;;;7.19;60.15;99696.13;5003824;28;20053;-91
2023/04/08 04:02:47;;;;;;;13.25;9.80;;;;;;;7.17;60.08;99682.16;5018899;28;20060;-92
2023/04/08 04:05:13;;;;;;;16.35;9.98;;;;;;;7.21;60.09;99691.34;5019455;28;20038;-92
2023/04/08 04:07:39;;;;;;;15.20;10.07;;;;;;;7.21;60.42;99693.22;5020217;28;20028;-92
2023/04/08 04:10:06;;;;;;;16.27;9.38;;;;;;;7.42;59.81;99703.25;5037085;28;20029;-92
2023/04/08 04:12:32;;;;;;;15.68;9.65;;;;;;;7.49;59.43;99701.25;5019623;28;20395;-91
2023/04/08 04:14:58;;;;;;;13.82;9.95;;;;;;;7.49;59.12;99690.53;5018380;28;20041;-93
2023/04/08 04:17:25;;;;;;;15.80;10.18;;;;;;;7.47;58.97;99678.41;5019332;28;20065;-93
2023/04/08 04:19:52;;;;;;;15.13;10.02;;;;;;;7.53;58.74;99679.31;5019083;28;20103;-93
2023/04/08 04:22:17;;;;;;;13.32;9.43;;;;;;;7.55;58.63;99691.41;5019731;28;20041;-91
2023/04/08 04:24:47;;;;;;;15.43;9.95;;;;;;;7.60;58.47;99715.66;5019844;28;20025;-93
2023/04/08 04:27:16;;;;;;;15.30;10.15;;;;;;;7.65;58.50;99714.91;5003103;28;20012;-93
2023/04/08 04:29:43;;;;;;;12.43;9.60;;;;;;;7.70;59.15;99712.34;5019304;28;20117;-93
2023/04/08 04:32:09;;;;;;;18.40;11.52;;;;;;;7.68;58.45;99722.50;5019585;28;20022;-92
2023/04/08 04:34:35;;;;;;;16.67;11.48;;;;;;;7.58;58.33;99709.72;5018732;28;20551;-91
2023/04/08 04:37:01;;;;;;;17.30;11.40;;;;;;;7.46;60.39;99731.19;5019687;28;20025;-93
2023/04/08 04:39:27;;;;;;;18.55;11.57;;;;;;;7.33;61.47;99719.97;5019852;28;20502;-93
2023/04/08 04:41:52;;;;;;;19.52;11.18;;;;;;;7.39;61.15;99730.53;5001112;28;20034;-93
2023/04/08 04:44:20;;;;;;;16.58;12.45;;;;;;;7.17;62.74;99725.00;4999752;28;20058;-93
2023/04/08 04:46:46;;;;;;;16.33;9.80;;;;;;;7.23;63.37;99724.03;5012038;28;20184;-94
2023/04/08 04:49:12;;;;;;;17.65;10.50;;;;;;;7.15;63.81;99726.28;4996818;28;20046;-93
2023/04/08 04:51:41;;;;;;;16.10;10.73;;;;;;;7.10;64.29;99735.03;4965079;28;20024;-93
2023/04/08 04:54:06;;;;;;;16.38;10.25;;;;;;;7.14;64.23;99730.84;4979774;28;20038;-94
2023/04/08 04:56:32;;;;;;;12.98;10.15;;;;;;;7.08;63.64;99715.72;4979981;28;20096;-93
2023/04/08 04:58:57;;;;;;;15.73;10.90;;;;;;;7.04;63.66;99714.56;4964392;28;20033;-94
2023/04/08 05:01:27;;;;;;;18.35;11.25;;;;;;;7.19;64.24;99732.81;4980722;28;20085;-94
2023/04/08 05:07:16;;;;;;;19.35;10.73;;;;;;;7.05;63.76;99719.66;4998615;28;20041;-93
2023/04/08 05:09:42;;;;;;;20.02;12.63;;;;;;;7.23;63.16;99725.91;4965185;28;20102;-94
2023/04/08 05:12:08;;;;;;;20.15;12.32;;;;;;;7.23;63.30;99736.63;4965779;28;20110;-93
2023/04/08 05:14:34;;;;;;;19.83;12.00;;;;;;;7.21;64.09;99722.66;4963721;28;20038;-93
2023/04/08 05:17:01;;;;;;;16.73;11.60;;;;;;;7.22;64.43;99730.47;4997736;28;20600;-94
2023/04/08 05:19:27;;;;;;;24.10;12.73;;;;;;;7.19;64.54;99738.16;4981305;28;20034;-92
2023/04/08 05:21:53;;;;;;;17.95;12.50;;;;;;;7.22;63.87;99725.13;4964474;28;20030;-93
2023/04/08 05:24:20;;;;;;;15.95;10.88;;;;;;;7.29;63.35;99727.66;4979682;28;20034;-94
2023/04/08 05:26:51;;;;;;;18.50;12.02;;;;;;;7.26;63.41;99733.47;4968636;28;20176;-94
2023/04/08 05:29:17;;;;;;;20.27;12.27;;;;;;;7.29;63.43;99746.41;5002830;28;20022;-93
2023/04/08 05:31:44;;;;;;;20.63;12.23;;;;;;;7.26;63.75;99738.81;5003578;28;20033;-93
2023/04/08 05:34:11;;;;;;;19.52;12.90;;;;;;;7.37;63.08;99740.66;5019637;28;20026;-94
2023/04/08 05:36:37;;;;;;;20.75;13.45;;;;;;;7.38;63.64;99749.50;4986897;28;20034;-93
2023/04/08 05:39:03;;;;;;;20.90;14.02;;;;;;;7.38;62.95;99744.97;4989320;28;20030;-92
2023/04/08 05:41:28;;;;;;;18.70;12.82;;;;;;;7.36;63.37;99738.22;4987433;28;20411;-94
2023/04/08 05:43:53;;;;;;;21.02;13.63;;;;;;;7.43;63.10;99744.28;4991027;28;20036;-95
2023/04/08 05:46:21;;;;;;;26.25;14.23;;;;;;;7.46;62.92;99743.78;4974816;28;20436;-93
2023/04/08 05:48:49;;;;;;;20.70;13.55;;;;;;;7.59;62.46;99743.47;5006781;28;20041;-94
2023/04/08 05:51:16;;;;;;;20.25;13.15;;;;;;;7.66;62.26;99733.44;5021818;28;20026;-94
2023/04/08 05:53:44;;;;;;;18.92;12.77;;;;;;;7.78;62.36;99748.66;5003201;28;20022;-94
2023/04/08 05:56:09;;;;;;;22.05;14.40;;;;;;;7.72;62.30;99737.03;5002641;28;20038;-94
2023/04/08 05:58:36;;;;;;;23.52;14.55;;;;;;;7.83;62.18;99730.78;5003977;28;20034;-93
2023/04/08 06:01:05;;;;;;;25.23;13.55;;;;;;;7.93;62.21;99740.06;4987617;28;20502;-92
2023/04/08 06:03:31;;;;;;;20.27;14.07;;;;;;;7.36;63.64;99735.53;4987351;28;20025;-93
2023/04/08 06:05:57;;;;;;;26.02;13.48;;;;;;;7.58;63.12;99739.19;5003204;28;20030;-93
2023/04/08 06:08:23;;;;;;;23.63;14.48;;;;;;;7.94;61.91;99734.47;5002772;28;20034;-90
2023/04/08 06:11:14;;;;;;;22.88;13.60;;;;;;;8.18;61.30;99735.13;4986732;28;20025;-92
2023/04/08 06:13:41;;;;;;;19.45;13.48;;;;;;;8.36;60.45;99735.94;4948565;28;20038;-92
2023/04/08 06:16:14;;;;;;;20.73;13.70;;;;;;;8.52;60.17;99737.03;4947615;28;20070;-94
2023/04/08 06:18:42;;;;;;;22.02;13.65;;;;;;;8.43;60.23;99726.69;4964570;28;20118;-92
2023/04/08 06:21:10;;;;;;;19.13;12.35;;;;;;;8.47;59.49;99738.56;4963172;28;20122;-94
2023/04/08 06:23:39;;;;;;;21.85;12.88;;;;;;;8.67;59.26;99740.75;4963611;28;20049;-93
2023/04/08 06:26:04;;;;;;;22.00;12.73;;;;;;;8.77;59.04;99732.00;4932087;28;20031;-94
2023/04/08 06:28:31;;;;;;;16.13;11.95;;;;;;;8.97;58.60;99744.91;4947033;28;20045;-94
2023/04/08 06:30:57;;;;;;;21.80;12.27;;;;;;;8.95;58.15;99735.47;4947675;28;20050;-95
2023/04/08 06:33:22;;;;;;;19.60;13.15;;;;;;;8.99;58.31;99748.16;4948386;28;20034;-94
2023/04/08 06:35:50;;;;;;;20.83;12.45;;;;;;;9.04;57.75;99733.97;4948487;28;20093;-92
2023/04/08 06:38:16;;;;;;;20.02;13.07;;;;;;;8.87;58.70;99740.19;4961873;28;20031;-93
2023/04/08 06:40:42;;;;;;;15.88;11.60;;;;;;;8.93;58.11;99738.41;4963329;28;20035;-93
2023/04/08 06:43:07;;;;;;;19.52;12.27;;;;;;;9.00;57.46;99736.34;4948032;28;20066;-93
2023/04/08 06:45:36;;;;;;;18.02;11.20;;;;;;;9.26;56.94;99748.22;4966974;28;20510;-94
2023/04/08 06:48:05;;;;;;;18.88;11.43;;;;;;;9.24;56.53;99753.03;5003967;28;20026;-93
2023/04/08 06:50:31;;;;;;;19.20;10.90;;;;;;;9.20;56.26;99746.53;4986471;28;20108;-94
2023/04/08 06:52:57;;;;;;;15.70;11.10;;;;;;;9.40;55.94;99742.47;5002047;28;20036;-93
2023/04/08 06:55:24;;;;;;;16.17;10.85;;;;;;;9.42;55.88;99751.91;5003483;28;20110;-93
2023/04/08 06:57:50;;;;;;;16.05;10.90;;;;;;;9.51;54.96;99755.78;5002684;28;20096;-94
2023/04/08 07:00:16;;;;;;;13.40;9.82;;;;;;;9.49;54.25;99752.53;4986581;28;20026;-94
2023/04/08 07:02:42;;;;;;;15.15;10.23;;;;;;;9.75;53.68;99755.47;5002408;28;20030;-93
2023/04/08 07:05:08;;;;;;;17.75;10.52;;;;;;;9.75;53.58;99757.34;5002009;28;20078;-93
2023/04/08 07:07:33;;;;;;;14.00;10.05;;;;;;;9.66;53.50;99762.38;5002254;28;20030;-95
2023/04/08 07:09:59;;;;;;;13.20;8.98;;;;;;;9.93;52.58;99765.06;4992176;28;20050;-94
2023/04/08 07:12:25;;;;;;;13.57;9.30;;;;;;;10.04;52.69;99757.91;5003557;28;20026;-95
2023/04/08 07:14:53;;;;;;;16.17;11.00;;;;;;;9.97;53.41;99762.69;5004096;28;20075;-96
2023/04/08 07:17:19;;;;;;;18.10;11.15;;;;;;;10.10;53.68;99770.34;4987955;28;20028;-94
2023/04/08 07:19:44;;;;;;;18.83;10.95;;;;;;;9.95;52.93;99765.63;4986858;28;20046;-95
2023/04/08 07:22:14;;;;;;;15.93;10.38;;;;;;;10.21;52.98;99768.53;5001625;28;20495;-94
2023/04/08 07:24:42;;;;;;;13.32;9.80;;;;;;;10.18;52.56;99755.59;4986490;28;20116;-92
2023/04/08 07:27:08;;;;;;;15.27;10.45;;;;;;;10.29;52.80;99758.16;5018945;28;20037;-93
2023/04/08 07:29:34;;;;;;;15.88;11.20;;;;;;;10.41;52.64;99762.56;5020785;28;20057;-93
2023/04/08 07:31:59;;;;;;;15.23;10.57;;;;;;;10.63;51.66;99757.88;5003280;28;20014;-92
2023/04/08 07:34:25;;;;;;;18.08;10.65;;;;;;;10.91;51.10;99769.34;5002234;28;20452;-93
2023/04/08 07:36:51;;;;;;;14.75;10.80;;;;;;;11.03;51.04;99759.19;5001946;28;20037;-93
2023/04/08 07:39:17;;;;;;;17.25;12.80;;;;;;;10.86;50.95;99769.31;5018670;28;20646;-93
2023/04/08 07:41:43;;;;;;;17.50;11.68;;;;;;;10.89;50.95;99771.50;5002602;28;20064;-92
2023/04/08 07:44:10;;;;;;;21.40;12.45;;;;;;;10.85;51.29;99759.59;4986244;28;20025;-94
2023/04/08 07:46:40;;;;;;;18.45;10.98;;;;;;;10.92;50.99;99762.91;4987382;28;20022;-94
2023/04/08 07:49:07;;;;;;;17.23;11.38;;;;;;;10.89;50.79;99763.41;5010289;28;20105;-93
2023/04/08 07:51:40;;;;;;;16.77;11.80;;;;;;;11.25;50.20;99760.91;5039019;28;20434;-93
2023/04/08 07:54:06;;;;;;;17.02;11.77;;;;;;;11.40;49.91;99774.44;5022564;28;20108;-93
2023/04/08 07:56:36;;;;;;;15.98;11.77;;;;;;;11.37;50.46;99774.97;5021209;28;20526;-95
2023/04/08 07:59:02;;;;;;;15.55;11.00;;;;;;;11.40;50.12;99771.75;5023339;28;20025;-94
2023/04/08 08:01:30;;;;;;;16.95;11.35;;;;;;;11.65;49.77;99779.09;5022739;28;20029;-93
2023/04/08 08:03:56;;;;;;;16.02;11.68;;;;;;;11.61;50.01;99755.63;5020022;28;20025;-86
2023/04/08 08:06:21;;;;;;;14.90;10.18;;;;;;;11.65;49.37;99762.91;5001914;28;20460;-87
2023/04/08 08:08:47;;;;;;;17.85;10.38;;;;;;;11.76;49.40;99765.66;5001752;28;20060;-87
2023/04/08 08:11:13;;;;;;;17.33;10.65;;;;;;;12.04;48.67;99773.28;5001608;28;20026;-87
2023/04/08 08:13:40;;;;;;;15.43;11.10;;;;;;;12.06;47.81;99759.53;5034917;28;20101;-86
2023/04/08 08:16:07;;;;;;;17.33;11.77;;;;;;;12.07;48.00;99756.53;5000750;28;20491;-87
2023/04/08 08:18:33;;;;;;;16.10;11.02;;;;;;;12.03;48.35;99731.16;5018234;28;20021;-86
2023/04/08 08:21:00;;;;;;;20.13;12.07;;;;;;;12.27;48.18;99766.53;5000520;28;20484;-87
2023/04/08 08:23:27;;;;;;;15.90;10.43;;;;;;;12.19;48.85;99771.69;5018090;28;20029;-88
2023/04/08 08:26:05;;;;;;;14.55;9.90;;;;;;;12.28;48.57;99767.34;5017883;28;20025;-87
2023/04/08 08:28:31;;;;;;;19.30;10.75;;;;;;;12.46;48.50;99758.72;5004430;28;20423;-93
2023/04/08 08:30:57;;;;;;;12.70;8.38;;;;;;;12.65;47.91;99758.16;5005919;28;20033;-93
2023/04/08 08:33:24;;;;;;;14.50;8.68;;;;;;;12.58;47.95;99750.34;5005271;28;20060;-95
2023/04/08 08:35:50;;;;;;;15.18;9.68;;;;;;;12.68;47.58;99744.91;5021064;28;20126;-94
2023/04/08 08:38:16;;;;;;;13.50;8.68;;;;;;;12.45;48.35;99734.66;5022349;28;20029;-94
2023/04/08 08:40:49;;;;;;;12.50;8.98;;;;;;;12.51;48.15;99737.09;5004398;28;20041;-94
2023/04/08 08:43:15;;;;;;;13.65;8.98;;;;;;;12.93;46.97;99745.94;5007721;28;20064;-95
2023/04/08 08:45:43;;;;;;;13.95;9.20;;;;;;;12.72;47.32;99737.06;5022205;28;20050;-93
2023/04/08 08:48:08;;;;;;;14.38;8.23;;;;;;;12.80;47.03;99739.19;5005483;28;20037;-95
2023/04/08 08:50:35;;;;;;;12.43;7.28;;;;;;;12.88;46.64;99727.03;5006201;28;20041;-94
2023/04/08 08:53:00;;;;;;;11.88;7.97;;;;;;;13.08;47.19;99758.59;5020798;28;20055;-93
2023/04/08 08:55:33;;;;;;;12.73;8.35;;;;;;;13.28;46.50;99750.41;5004250;28;20022;-94
2023/04/08 08:58:03;;;;;;;13.13;7.68;;;;;;;13.47;46.16;99753.31;5004418;28;20033;-93
2023/04/08 09:00:36;;;;;;;14.90;7.75;;;;;;;13.56;45.67;99761.66;5013884;28;20056;-92
2023/04/08 09:03:29;;;;;;;16.83;8.00;;;;;;;13.77;44.77;99751.53;5005944;28;20061;-94
2023/04/08 09:05:57;;;;;;;11.48;7.53;;;;;;;14.14;43.39;99761.84;5007963;28;20031;-93
2023/04/08 09:08:31;;;;;;;11.95;7.78;;;;;;;13.95;43.49;99759.00;5025752;28;20392;-93
2023/04/08 09:11:16;;;;;;;13.23;7.65;;;;;;;14.15;43.92;99752.63;5025663;28;20048;-94
2023/04/08 09:13:42;;;;;;;12.05;7.90;;;;;;;13.89;44.71;99738.47;5007405;28;20109;-94
2023/04/08 09:16:16;;;;;;;17.55;8.07;;;;;;;14.20;44.06;99761.81;5008210;28;20032;-95
2023/04/08 09:18:44;;;;;;;12.23;8.43;;;;;;;14.33;44.08;99758.44;5025446;28;20021;-95
2023/04/08 09:21:10;;;;;;;12.95;8.18;;;;;;;14.19;43.72;99747.44;5007758;28;20491;-95
2023/04/08 09:23:43;;;;;;;11.30;7.65;;;;;;;14.50;42.96;99745.28;5023936;28;20506;-93
2023/04/08 09:26:09;;;;;;;10.15;7.43;;;;;;;14.86;41.52;99739.53;5020394;28;20026;-95
2023/04/08 09:28:36;;;;;;;10.95;7.70;;;;;;;14.88;41.51;99747.38;5021865;28;20098;-95
2023/04/08 09:31:16;;;;;;;10.05;7.35;;;;;;;14.70;41.95;99746.22;5024815;28;20022;-94
2023/04/08 09:33:42;;;;;;;10.38;7.45;;;;;;;14.51;41.83;99737.97;5007369;28;20033;-95
2023/04/08 09:36:09;;;;;;;12.02;6.82;;;;;;;14.61;42.07;99734.38;5007343;28;20044;-96
2023/04/08 09:38:35;;;;;;;11.63;7.60;;;;;;;14.61;42.17;99734.38;5023912;28;20065;-94
2023/04/08 09:41:02;;;;;;;11.20;7.63;;;;;;;14.71;41.82;99743.22;5008014;28;20418;-94
2023/04/08 09:43:28;;;;;;;12.32;7.88;;;;;;;14.87;41.60;99729.50;5008002;28;20053;-94
2023/04/08 09:45:54;;;;;;;10.13;7.30;;;;;;;14.86;42.19;99733.31;5023153;28;20095;-94
2023/04/08 09:48:23;;;;;;;9.23;7.03;;;;;;;14.99;41.66;99720.97;5007489;28;20025;-93
2023/04/08 09:50:50;;;;;;;10.85;7.07;;;;;;;15.44;40.72;99738.59;5024445;28;20030;-94
2023/04/08 09:53:35;;;;;;;10.02;7.38;;;;;;;15.62;40.46;99736.16;5022989;28;20036;-94
2023/04/08 09:56:01;;;;;;;10.15;7.18;;;;;;;15.73;39.67;99737.69;5007241;28;20041;-93
2023/04/08 09:58:28;;;;;;;11.43;7.03;;;;;;;15.62;40.09;99726.09;5006806;28;20046;-94
2023/04/08 10:00:54;;;;;;;9.80;6.70;;;;;;;15.85;38.88;99721.72;5008063;28;20464;-95
2023/04/08 10:03:35;;;;;;;10.73;7.40;;;;;;;15.82;39.07;99726.97;5023665;28;20035;-94
2023/04/08 10:06:01;;;;;;;8.57;6.90;;;;;;;15.78;39.86;99736.78;5023224;28;20029;-94
2023/04/08 10:08:26;;;;;;;12.80;7.82;;;;;;;15.72;40.65;99730.63;5023880;28;20033;-95
2023/04/08 10:10:53;;;;;;;12.98;7.63;;;;;;;15.46;41.52;99728.25;5026252;28;20040;-95
2023/04/08 10:13:21;;;;;;;14.15;8.68;;;;;;;15.68;41.59;99737.72;5024134;28;20036;-94
2023/04/08 10:15:47;;;;;;;14.05;8.68;;;;;;;15.87;41.64;99737.72;5025445;28;20029;-95
2023/04/08 10:18:17;;;;;;;11.50;8.00;;;;;;;15.78;41.49;99740.31;5040876;28;20092;-93
2023/04/08 10:20:43;;;;;;;11.63;7.85;;;;;;;15.69;41.32;99732.00;5023412;28;20033;-95
2023/04/08 10:23:12;;;;;;;12.43;7.30;;;;;;;15.74;41.21;99736.56;5006256;28;20032;-96
2023/04/08 10:25:42;;;;;;;11.63;8.23;;;;;;;15.70;41.42;99732.78;5023278;28;20034;-95
2023/04/08 10:28:11;;;;;;;14.20;8.25;;;;;;;15.52;42.09;99746.06;5022998;28;20068;-94
2023/04/08 10:30:49;;;;;;;13.23;8.43;;;;;;;14.98;43.52;99732.91;5023807;28;20016;-94
2023/04/08 10:33:16;;;;;;;11.43;7.82;;;;;;;15.08;43.14;99738.22;5022680;28;20025;-95
2023/04/08 10:35:49;;;;;;;11.68;8.23;;;;;;;14.95;43.52;99739.72;5007401;28;20031;-93
2023/04/08 10:38:16;;;;;;;10.75;7.72;;;;;;;14.92;43.81;99738.41;5007864;28;20103;-94
2023/04/08 10:40:42;;;;;;;10.52;7.75;;;;;;;14.78;43.74;99729.31;5022177;28;20040;-95
2023/04/08 10:43:12;;;;;;;10.93;7.85;;;;;;;14.95;43.24;99718.81;5022675;28;20029;-94
2023/04/08 10:45:39;;;;;;;9.50;6.47;;;;;;;15.07;42.15;99723.03;5040426;28;20033;-94
2023/04/08 10:48:21;;;;;;;9.57;7.40;;;;;;;15.05;42.79;99726.03;5022261;28;20057;-94
2023/04/08 10:50:58;;;;;;;12.63;7.60;;;;;;;15.11;42.32;99724.09;5006587;28;20057;-95
2023/04/08 10:53:28;;;;;;;11.90;8.32;;;;;;;15.05;43.06;99720.63;5008273;28;20030;-94
2023/04/08 10:56:15;;;;;;;10.70;8.00;;;;;;;14.78;43.79;99721.19;5041147;28;20125;-96
2023/04/08 10:58:48;;;;;;;10.50;7.05;;;;;;;14.97;43.49;99715.03;5008370;28;20017;-94
2023/04/08 11:01:14;;;;;;;10.93;8.35;;;;;;;14.98;43.65;99722.06;5023727;28;20031;-95
2023/04/08 11:03:41;;;;;;;10.95;6.90;;;;;;;14.94;42.86;99719.94;5022895;28;20056;-94
2023/04/08 11:06:07;;;;;;;10.68;7.22;;;;;;;14.94;43.02;99716.38;5004683;28;20030;-93
2023/04/08 11:08:33;;;;;;;9.45;7.25;;;;;;;15.07;43.32;99721.13;5004768;28;20056;-92
2023/04/08 11:11:02;;;;;;;14.38;7.35;;;;;;;15.14;43.07;99718.88;5005415;28;20029;-92
2023/04/08 11:13:28;;;;;;;12.98;7.32;;;;;;;15.06;43.02;99714.09;5011052;28;20029;-93
2023/04/08 11:15:54;;;;;;;11.23;7.20;;;;;;;15.04;43.37;99716.28;5021761;28;20037;-93
2023/04/08 11:18:23;;;;;;;8.75;6.55;;;;;;;15.09;42.72;99727.06;5004112;28;20093;-93
2023/04/08 11:20:52;;;;;;;10.48;6.95;;;;;;;15.07;42.71;99721.13;5021816;28;20089;-95
2023/04/08 11:23:19;;;;;;;11.70;7.40;;;;;;;15.20;43.39;99703.34;5021666;28;20452;-93
2023/04/08 11:25:45;;;;;;;7.72;6.28;;;;;;;15.31;42.08;99714.88;5021950;28;20061;-94
2023/04/08 11:28:12;;;;;;;9.38;7.13;;;;;;;15.44;41.85;99707.91;5039278;28;20021;-92
2023/04/08 11:30:39;;;;;;;9.32;7.00;;;;;;;15.40;41.84;99699.56;5023215;28;20096;-94